sensor_id;sensor_type;location;lat;lon;timestamp;pressure;altitude;pressure_sealevel;temperature;humidity
75656;BME280;64252;51.094;13.714;2023-12-29T00:01:20;100067.78;;;16.07;42.87
75656;BME280;64252;51.094;13.714;2023-12-29T00:03:45;100074.19;;;16.11;42.64
75656;BME280;64252;51.094;13.714;2023-12-29T00:06:11;100058.81;;;16.09;42.50
75656;BME280;64252;51.094;13.714;2023-12-29T00:08:36;100056.69;;;15.90;43.24
75656;BME280;64252;51.094;13.714;2023-12-29T00:11:02;100051.88;;;15.87;43.38
75656;BME280;64252;51.094;13.714;2023-12-29T00:13:28;100039.09;;;15.45;43.80
75656;BME280;64252;51.094;13.714;2023-12-29T00:15:54;100033.44;;;15.71;43.88
75656;BME280;64252;51.094;13.714;2023-12-29T00:18:20;100038.63;;;15.50;43.90
75656;BME280;64252;51.094;13.714;2023-12-29T00:20:46;100033.59;;;15.07;44.79
75656;BME280;64252;51.094;13.714;2023-12-29T00:23:12;100027.22;;;14.69;45.60
75656;BME280;64252;51.094;13.714;2023-12-29T00:25:37;100015.94;;;14.92;45.27
75656;BME280;64252;51.094;13.714;2023-12-29T00:28:06;100014.34;;;14.91;45.43
75656;BME280;64252;51.094;13.714;2023-12-29T00:30:32;100012.72;;;14.90;45.26
75656;BME280;64252;51.094;13.714;2023-12-29T00:32:58;100014.91;;;14.79;45.49
75656;BME280;64252;51.094;13.714;2023-12-29T00:35:23;100000.78;;;14.42;46.05
75656;BME280;64252;51.094;13.714;2023-12-29T00:37:50;100012.06;;;14.49;46.09
75656;BME280;64252;51.094;13.714;2023-12-29T00:40:16;100008.53;;;14.38;46.31
75656;BME280;64252;51.094;13.714;2023-12-29T00:42:41;100010.97;;;14.39;46.85
75656;BME280;64252;51.094;13.714;2023-12-29T00:45:07;100014.22;;;14.38;46.82
75656;BME280;64252;51.094;13.714;2023-12-29T00:47:33;100006.03;;;14.43;46.74
75656;BME280;64252;51.094;13.714;2023-12-29T00:49:59;100005.22;;;14.05;47.48
75656;BME280;64252;51.094;13.714;2023-12-29T00:52:25;100004.19;;;14.60;46.48
75656;BME280;64252;51.094;13.714;2023-12-29T00:54:51;100009.88;;;14.60;46.66
75656;BME280;64252;51.094;13.714;2023-12-29T00:57:16;100013.56;;;14.57;46.23
75656;BME280;64252;51.094;13.714;2023-12-29T00:59:42;100011.63;;;14.50;46.70
75656;BME280;64252;51.094;13.714;2023-12-29T01:02:09;100011.25;;;14.79;46.13
75656;BME280;64252;51.094;13.714;2023-12-29T01:04:37;100010.84;;;14.46;46.42
75656;BME280;64252;51.094;13.714;2023-12-29T01:07:04;100014.72;;;14.63;46.56
75656;BME280;64252;51.094;13.714;2023-12-29T01:09:31;100020.66;;;14.42;47.63
75656;BME280;64252;51.094;13.714;2023-12-29T01:11:56;100012.91;;;14.76;45.86
75656;BME280;64252;51.094;13.714;2023-12-29T01:14:22;100013.66;;;14.80;46.19
75656;BME280;64252;51.094;13.714;2023-12-29T01:16:47;100002.22;;;14.87;46.34
75656;BME280;64252;51.094;13.714;2023-12-29T01:19:13;100000.72;;;15.06;45.82
75656;BME280;64252;51.094;13.714;2023-12-29T01:21:38;99999.19;;;14.71;46.53
75656;BME280;64252;51.094;13.714;2023-12-29T01:24:04;100002.50;;;14.97;46.31
75656;BME280;64252;51.094;13.714;2023-12-29T01:26:36;99996.00;;;14.96;45.75
75656;BME280;64252;51.094;13.714;2023-12-29T01:29:02;100000.59;;;14.86;46.20
75656;BME280;64252;51.094;13.714;2023-12-29T01:31:30;100001.69;;;14.96;46.31
75656;BME280;64252;51.094;13.714;2023-12-29T01:33:57;100001.44;;;14.83;46.79
75656;BME280;64252;51.094;13.714;2023-12-29T01:36:22;99999.41;;;14.84;46.76
75656;BME280;64252;51.094;13.714;2023-12-29T01:38:48;99997.28;;;14.91;47.04
75656;BME280;64252;51.094;13.714;2023-12-29T01:41:14;99999.53;;;15.04;46.32
75656;BME280;64252;51.094;13.714;2023-12-29T01:46:31;99992.59;;;15.05;46.39
75656;BME280;64252;51.094;13.714;2023-12-29T01:48:58;99990.25;;;15.53;45.33
75656;BME280;64252;51.094;13.714;2023-12-29T01:51:25;99987.41;;;15.00;46.07
75656;BME280;64252;51.094;13.714;2023-12-29T01:53:56;99977.94;;;15.33;45.95
75656;BME280;64252;51.094;13.714;2023-12-29T01:56:23;99980.53;;;15.47;45.38
75656;BME280;64252;51.094;13.714;2023-12-29T01:58:49;99978.22;;;15.65;44.79
75656;BME280;64252;51.094;13.714;2023-12-29T02:01:16;99967.00;;;15.55;45.14
75656;BME280;64252;51.094;13.714;2023-12-29T02:03:44;99974.97;;;16.10;43.82
75656;BME280;64252;51.094;13.714;2023-12-29T02:06:10;99976.34;;;16.21;43.54
75656;BME280;64252;51.094;13.714;2023-12-29T02:08:37;99973.63;;;15.95;44.15
75656;BME280;64252;51.094;13.714;2023-12-29T02:11:04;99975.22;;;16.15;43.36
75656;BME280;64252;51.094;13.714;2023-12-29T02:13:29;99972.75;;;15.98;44.20
75656;BME280;64252;51.094;13.714;2023-12-29T02:15:58;99973.53;;;15.98;43.72
75656;BME280;64252;51.094;13.714;2023-12-29T02:18:26;99975.63;;;15.74;44.34
75656;BME280;64252;51.094;13.714;2023-12-29T02:20:54;99965.56;;;15.90;44.10
75656;BME280;64252;51.094;13.714;2023-12-29T02:23:20;99958.34;;;15.85;44.02
75656;BME280;64252;51.094;13.714;2023-12-29T02:25:45;99948.94;;;16.08;43.52
75656;BME280;64252;51.094;13.714;2023-12-29T02:28:23;99946.47;;;16.10;43.40
75656;BME280;64252;51.094;13.714;2023-12-29T02:31:09;99938.75;;;15.44;44.45
75656;BME280;64252;51.094;13.714;2023-12-29T02:33:38;99933.88;;;15.88;44.06
75656;BME280;64252;51.094;13.714;2023-12-29T02:36:05;99928.34;;;16.20;43.42
75656;BME280;64252;51.094;13.714;2023-12-29T02:38:32;99926.59;;;16.26;43.40
75656;BME280;64252;51.094;13.714;2023-12-29T02:40:59;99925.00;;;16.05;43.85
75656;BME280;64252;51.094;13.714;2023-12-29T02:43:25;99918.72;;;16.34;43.26
75656;BME280;64252;51.094;13.714;2023-12-29T02:45:50;99921.34;;;16.05;43.89
75656;BME280;64252;51.094;13.714;2023-12-29T02:48:16;99904.47;;;16.14;44.19
75656;BME280;64252;51.094;13.714;2023-12-29T02:50:41;99906.22;;;16.08;44.28
75656;BME280;64252;51.094;13.714;2023-12-29T02:53:08;99907.28;;;15.74;45.02
75656;BME280;64252;51.094;13.714;2023-12-29T02:55:34;99903.91;;;16.58;43.28
75656;BME280;64252;51.094;13.714;2023-12-29T02:57:59;99900.72;;;16.37;43.53
75656;BME280;64252;51.094;13.714;2023-12-29T03:00:25;99895.94;;;16.70;42.91
75656;BME280;64252;51.094;13.714;2023-12-29T03:02:50;99888.41;;;15.84;44.62
75656;BME280;64252;51.094;13.714;2023-12-29T03:05:16;99896.56;;;15.82;45.20
75656;BME280;64252;51.094;13.714;2023-12-29T03:07:42;99904.53;;;16.30;43.84
75656;BME280;64252;51.094;13.714;2023-12-29T03:10:08;99904.53;;;16.30;44.14
75656;BME280;64252;51.094;13.714;2023-12-29T03:12:34;99904.41;;;16.73;43.12
75656;BME280;64252;51.094;13.714;2023-12-29T03:14:59;99906.72;;;16.62;43.09
75656;BME280;64252;51.094;13.714;2023-12-29T03:17:25;99902.72;;;16.92;42.57
75656;BME280;64252;51.094;13.714;2023-12-29T03:19:52;99904.50;;;16.86;42.57
75656;BME280;64252;51.094;13.714;2023-12-29T03:22:18;99909.94;;;16.80;42.54
75656;BME280;64252;51.094;13.714;2023-12-29T03:24:44;99908.88;;;16.54;43.26
75656;BME280;64252;51.094;13.714;2023-12-29T03:27:10;99902.63;;;16.79;42.71
75656;BME280;64252;51.094;13.714;2023-12-29T03:29:36;99911.03;;;16.31;43.96
75656;BME280;64252;51.094;13.714;2023-12-29T03:32:01;99906.25;;;16.63;43.27
75656;BME280;64252;51.094;13.714;2023-12-29T03:34:27;99912.94;;;16.37;44.25
75656;BME280;64252;51.094;13.714;2023-12-29T03:36:53;99911.25;;;15.80;45.37
75656;BME280;64252;51.094;13.714;2023-12-29T03:39:19;99897.41;;;15.13;46.62
75656;BME280;64252;51.094;13.714;2023-12-29T03:41:44;99893.00;;;15.98;45.05
75656;BME280;64252;51.094;13.714;2023-12-29T03:44:10;99882.97;;;16.29;43.78
75656;BME280;64252;51.094;13.714;2023-12-29T03:46:35;99894.50;;;16.42;43.49
75656;BME280;64252;51.094;13.714;2023-12-29T03:49:01;99886.38;;;16.40;43.47
75656;BME280;64252;51.094;13.714;2023-12-29T03:51:27;99897.38;;;16.22;43.92
75656;BME280;64252;51.094;13.714;2023-12-29T03:53:52;99899.09;;;16.55;43.31
75656;BME280;64252;51.094;13.714;2023-12-29T03:56:21;99886.56;;;16.69;42.91
75656;BME280;64252;51.094;13.714;2023-12-29T03:58:47;99890.56;;;16.36;43.39
75656;BME280;64252;51.094;13.714;2023-12-29T04:01:15;99878.28;;;16.39;43.63
75656;BME280;64252;51.094;13.714;2023-12-29T04:03:41;99872.75;;;16.12;44.35
75656;BME280;64252;51.094;13.714;2023-12-29T04:06:08;99867.88;;;15.53;45.38
75656;BME280;64252;51.094;13.714;2023-12-29T04:08:34;99871.97;;;15.92;44.95
75656;BME280;64252;51.094;13.714;2023-12-29T04:11:00;99857.38;;;15.90;44.84
75656;BME280;64252;51.094;13.714;2023-12-29T04:13:26;99861.66;;;15.35;46.23
75656;BME280;64252;51.094;13.714;2023-12-29T04:15:52;99866.53;;;14.34;48.96
75656;BME280;64252;51.094;13.714;2023-12-29T04:18:22;99864.22;;;15.29;47.12
75656;BME280;64252;51.094;13.714;2023-12-29T04:20:48;99863.63;;;15.61;46.61
75656;BME280;64252;51.094;13.714;2023-12-29T04:23:14;99859.25;;;15.96;45.72
75656;BME280;64252;51.094;13.714;2023-12-29T04:25:39;99866.53;;;16.73;44.10
75656;BME280;64252;51.094;13.714;2023-12-29T04:28:06;99869.03;;;16.87;43.54
75656;BME280;64252;51.094;13.714;2023-12-29T04:30:32;99856.41;;;17.04;43.24
75656;BME280;64252;51.094;13.714;2023-12-29T04:32:57;99863.25;;;16.74;44.05
75656;BME280;64252;51.094;13.714;2023-12-29T04:35:23;99853.78;;;17.09;42.99
75656;BME280;64252;51.094;13.714;2023-12-29T04:37:48;99854.78;;;17.03;43.07
75656;BME280;64252;51.094;13.714;2023-12-29T04:40:15;99854.41;;;17.01;43.02
75656;BME280;64252;51.094;13.714;2023-12-29T04:42:41;99852.09;;;16.80;43.45
75656;BME280;64252;51.094;13.714;2023-12-29T04:45:06;99861.84;;;16.46;44.40
75656;BME280;64252;51.094;13.714;2023-12-29T04:47:32;99854.81;;;15.75;46.08
75656;BME280;64252;51.094;13.714;2023-12-29T04:49:58;99861.31;;;15.10;47.80
75656;BME280;64252;51.094;13.714;2023-12-29T04:52:23;99855.59;;;16.51;44.43
75656;BME280;64252;51.094;13.714;2023-12-29T04:54:49;99865.25;;;16.02;45.46
75656;BME280;64252;51.094;13.714;2023-12-29T04:57:14;99859.19;;;16.00;45.35
75656;BME280;64252;51.094;13.714;2023-12-29T04:59:40;99852.63;;;16.75;43.51
75656;BME280;64252;51.094;13.714;2023-12-29T05:02:05;99845.03;;;16.68;43.62
75656;BME280;64252;51.094;13.714;2023-12-29T05:04:31;99837.47;;;16.78;43.47
75656;BME280;64252;51.094;13.714;2023-12-29T05:06:57;99841.06;;;16.98;42.69
75656;BME280;64252;51.094;13.714;2023-12-29T05:09:22;99847.28;;;16.93;42.55
75656;BME280;64252;51.094;13.714;2023-12-29T05:11:48;99848.78;;;17.30;41.79
75656;BME280;64252;51.094;13.714;2023-12-29T05:14:13;99855.13;;;17.37;41.29
75656;BME280;64252;51.094;13.714;2023-12-29T05:16:41;99852.25;;;17.37;41.31
75656;BME280;64252;51.094;13.714;2023-12-29T05:19:06;99853.44;;;16.91;42.01
75656;BME280;64252;51.094;13.714;2023-12-29T05:21:32;99858.06;;;16.33;42.94
75656;BME280;64252;51.094;13.714;2023-12-29T05:23:57;99853.97;;;17.19;41.18
75656;BME280;64252;51.094;13.714;2023-12-29T05:26:23;99847.41;;;17.50;40.40
75656;BME280;64252;51.094;13.714;2023-12-29T05:28:48;99843.19;;;17.26;40.92
75656;BME280;64252;51.094;13.714;2023-12-29T05:31:14;99834.81;;;16.35;43.16
75656;BME280;64252;51.094;13.714;2023-12-29T05:33:39;99837.25;;;17.33;40.54
75656;BME280;64252;51.094;13.714;2023-12-29T05:36:06;99848.94;;;17.39;40.61
75656;BME280;64252;51.094;13.714;2023-12-29T05:38:36;99848.81;;;16.45;41.91
75656;BME280;64252;51.094;13.714;2023-12-29T05:41:03;99853.72;;;17.13;40.82
75656;BME280;64252;51.094;13.714;2023-12-29T05:43:33;99848.06;;;17.26;40.10
75656;BME280;64252;51.094;13.714;2023-12-29T05:46:00;99844.09;;;17.07;40.86
75656;BME280;64252;51.094;13.714;2023-12-29T05:48:27;99836.75;;;17.06;41.13
75656;BME280;64252;51.094;13.714;2023-12-29T05:50:53;99830.84;;;17.45;40.32
75656;BME280;64252;51.094;13.714;2023-12-29T05:53:19;99825.31;;;17.38;40.09
75656;BME280;64252;51.094;13.714;2023-12-29T05:55:44;99831.06;;;17.22;40.44
75656;BME280;64252;51.094;13.714;2023-12-29T05:58:11;99831.59;;;17.17;40.57
75656;BME280;64252;51.094;13.714;2023-12-29T06:00:37;99825.34;;;17.22;40.56
75656;BME280;64252;51.094;13.714;2023-12-29T06:03:03;99828.28;;;17.19;40.47
75656;BME280;64252;51.094;13.714;2023-12-29T06:05:32;99830.47;;;16.46;42.12
75656;BME280;64252;51.094;13.714;2023-12-29T06:07:58;99824.13;;;16.75;41.61
75656;BME280;64252;51.094;13.714;2023-12-29T06:10:24;99833.38;;;16.27;42.92
75656;BME280;64252;51.094;13.714;2023-12-29T06:12:50;99819.25;;;15.84;44.35
75656;BME280;64252;51.094;13.714;2023-12-29T06:15:15;99808.34;;;16.18;43.87
75656;BME280;64252;51.094;13.714;2023-12-29T06:17:41;99816.03;;;16.89;42.37
75656;BME280;64252;51.094;13.714;2023-12-29T06:20:08;99809.34;;;16.80;42.66
75656;BME280;64252;51.094;13.714;2023-12-29T06:22:39;99805.94;;;16.68;42.97
75656;BME280;64252;51.094;13.714;2023-12-29T06:25:08;99811.63;;;16.16;44.13
75656;BME280;64252;51.094;13.714;2023-12-29T06:27:34;99820.56;;;16.71;42.98
75656;BME280;64252;51.094;13.714;2023-12-29T06:30:11;99817.06;;;17.11;42.04
75656;BME280;64252;51.094;13.714;2023-12-29T06:32:37;99810.22;;;16.93;42.26
75656;BME280;64252;51.094;13.714;2023-12-29T06:35:04;99800.84;;;16.08;43.85
75656;BME280;64252;51.094;13.714;2023-12-29T06:37:30;99806.84;;;16.65;42.55
75656;BME280;64252;51.094;13.714;2023-12-29T06:39:56;99805.59;;;16.83;42.07
75656;BME280;64252;51.094;13.714;2023-12-29T06:42:21;99788.63;;;17.08;41.52
75656;BME280;64252;51.094;13.714;2023-12-29T06:44:48;99788.22;;;16.25;42.91
75656;BME280;64252;51.094;13.714;2023-12-29T06:47:14;99784.47;;;16.80;41.47
75656;BME280;64252;51.094;13.714;2023-12-29T06:49:39;99793.56;;;17.36;40.50
75656;BME280;64252;51.094;13.714;2023-12-29T06:52:06;99794.38;;;16.76;41.20
75656;BME280;64252;51.094;13.714;2023-12-29T06:54:31;99794.34;;;16.59;41.16
75656;BME280;64252;51.094;13.714;2023-12-29T06:56:57;99796.97;;;16.34;41.79
75656;BME280;64252;51.094;13.714;2023-12-29T06:59:23;99810.03;;;16.67;41.07
75656;BME280;64252;51.094;13.714;2023-12-29T07:01:48;99799.59;;;16.77;40.71
75656;BME280;64252;51.094;13.714;2023-12-29T07:04:14;99791.97;;;16.74;40.78
75656;BME280;64252;51.094;13.714;2023-12-29T07:06:41;99783.47;;;16.87;40.45
75656;BME280;64252;51.094;13.714;2023-12-29T07:09:08;99786.06;;;16.81;40.82
75656;BME280;64252;51.094;13.714;2023-12-29T07:11:35;99779.13;;;16.82;40.66
75656;BME280;64252;51.094;13.714;2023-12-29T07:14:00;99790.97;;;16.64;40.74
75656;BME280;64252;51.094;13.714;2023-12-29T07:16:26;99784.34;;;16.51;41.06
75656;BME280;64252;51.094;13.714;2023-12-29T07:18:52;99784.91;;;16.79;40.91
75656;BME280;64252;51.094;13.714;2023-12-29T07:21:17;99798.19;;;16.85;40.48
75656;BME280;64252;51.094;13.714;2023-12-29T07:23:43;99800.81;;;16.44;41.53
75656;BME280;64252;51.094;13.714;2023-12-29T07:26:09;99793.25;;;16.53;41.55
75656;BME280;64252;51.094;13.714;2023-12-29T07:28:35;99790.97;;;17.42;39.90
75656;BME280;64252;51.094;13.714;2023-12-29T07:31:01;99800.41;;;16.78;41.29
75656;BME280;64252;51.094;13.714;2023-12-29T07:33:27;99800.69;;;17.28;40.35
75656;BME280;64252;51.094;13.714;2023-12-29T07:35:55;99804.63;;;17.34;40.58
75656;BME280;64252;51.094;13.714;2023-12-29T07:38:21;99808.56;;;17.24;40.39
75656;BME280;64252;51.094;13.714;2023-12-29T07:40:46;99809.16;;;16.71;41.60
75656;BME280;64252;51.094;13.714;2023-12-29T07:43:16;99823.63;;;17.41;40.30
75656;BME280;64252;51.094;13.714;2023-12-29T07:45:41;99823.88;;;16.85;41.35
75656;BME280;64252;51.094;13.714;2023-12-29T07:48:08;99817.88;;;16.96;41.13
75656;BME280;64252;51.094;13.714;2023-12-29T07:50:34;99824.66;;;16.70;41.55
75656;BME280;64252;51.094;13.714;2023-12-29T07:53:00;99829.44;;;17.05;41.33
75656;BME280;64252;51.094;13.714;2023-12-29T07:55:31;99838.84;;;16.89;41.27
75656;BME280;64252;51.094;13.714;2023-12-29T07:57:57;99834.69;;;16.58;41.84
75656;BME280;64252;51.094;13.714;2023-12-29T08:00:23;99849.22;;;17.28;40.61
75656;BME280;64252;51.094;13.714;2023-12-29T08:02:49;99855.13;;;18.36;38.77
75656;BME280;64252;51.094;13.714;2023-12-29T08:05:15;99861.00;;;17.14;41.03
75656;BME280;64252;51.094;13.714;2023-12-29T08:07:43;99862.56;;;17.47;40.23
75656;BME280;64252;51.094;13.714;2023-12-29T08:10:09;99870.56;;;18.26;39.05
75656;BME280;64252;51.094;13.714;2023-12-29T08:12:34;99868.31;;;18.05;39.17
75656;BME280;64252;51.094;13.714;2023-12-29T08:15:04;99876.94;;;18.72;38.18
75656;BME280;64252;51.094;13.714;2023-12-29T08:17:31;99885.41;;;18.21;39.01
75656;BME280;64252;51.094;13.714;2023-12-29T08:19:56;99886.28;;;18.06;39.51
75656;BME280;64252;51.094;13.714;2023-12-29T08:22:22;99889.22;;;19.32;37.49
75656;BME280;64252;51.094;13.714;2023-12-29T08:24:47;99884.53;;;19.38;37.53
75656;BME280;64252;51.094;13.714;2023-12-29T08:27:13;99887.81;;;19.62;37.16
75656;BME280;64252;51.094;13.714;2023-12-29T08:29:40;99883.09;;;19.08;37.72
75656;BME280;64252;51.094;13.714;2023-12-29T08:32:06;99883.78;;;18.87;37.81
75656;BME280;64252;51.094;13.714;2023-12-29T08:34:32;99879.16;;;19.27;37.26
75656;BME280;64252;51.094;13.714;2023-12-29T08:36:59;99882.66;;;18.97;37.68
75656;BME280;64252;51.094;13.714;2023-12-29T08:39:25;99874.25;;;19.03;37.91
75656;BME280;64252;51.094;13.714;2023-12-29T08:41:50;99872.69;;;19.02;37.90
75656;BME280;64252;51.094;13.714;2023-12-29T08:44:16;99870.19;;;18.24;39.38
75656;BME280;64252;51.094;13.714;2023-12-29T08:46:42;99875.00;;;18.27;39.46
75656;BME280;64252;51.094;13.714;2023-12-29T08:49:07;99868.81;;;18.16;39.76
75656;BME280;64252;51.094;13.714;2023-12-29T08:51:33;99885.69;;;17.98;40.25
75656;BME280;64252;51.094;13.714;2023-12-29T08:53:59;99887.41;;;18.50;38.87
75656;BME280;64252;51.094;13.714;2023-12-29T08:56:25;99884.69;;;19.09;38.34
75656;BME280;64252;51.094;13.714;2023-12-29T08:58:50;99881.03;;;18.96;38.19
75656;BME280;64252;51.094;13.714;2023-12-29T09:01:16;99880.13;;;18.99;38.53
75656;BME280;64252;51.094;13.714;2023-12-29T09:03:41;99875.47;;;18.38;38.88
75656;BME280;64252;51.094;13.714;2023-12-29T09:06:08;99862.56;;;18.47;39.40
75656;BME280;64252;51.094;13.714;2023-12-29T09:08:35;99867.81;;;18.35;39.58
75656;BME280;64252;51.094;13.714;2023-12-29T09:11:04;99862.47;;;18.88;38.88
75656;BME280;64252;51.094;13.714;2023-12-29T09:13:30;99855.41;;;18.55;38.78
75656;BME280;64252;51.094;13.714;2023-12-29T09:15:56;99861.47;;;16.96;42.30
75656;BME280;64252;51.094;13.714;2023-12-29T09:18:22;99856.31;;;18.90;38.60
75656;BME280;64252;51.094;13.714;2023-12-29T09:20:48;99854.50;;;18.58;39.28
75656;BME280;64252;51.094;13.714;2023-12-29T09:23:13;99857.16;;;18.23;39.95
75656;BME280;64252;51.094;13.714;2023-12-29T09:25:40;99857.19;;;18.36;39.75
75656;BME280;64252;51.094;13.714;2023-12-29T09:28:06;99853.59;;;18.19;40.24
75656;BME280;64252;51.094;13.714;2023-12-29T09:30:32;99864.59;;;18.21;40.13
75656;BME280;64252;51.094;13.714;2023-12-29T09:32:57;99858.84;;;18.75;38.76
75656;BME280;64252;51.094;13.714;2023-12-29T09:35:23;99868.31;;;18.84;38.90
75656;BME280;64252;51.094;13.714;2023-12-29T09:37:49;99859.09;;;17.85;40.13
75656;BME280;64252;51.094;13.714;2023-12-29T09:40:15;99861.16;;;19.40;37.83
75656;BME280;64252;51.094;13.714;2023-12-29T09:42:44;99864.00;;;19.52;37.93
75656;BME280;64252;51.094;13.714;2023-12-29T09:45:12;99864.00;;;18.93;38.44
75656;BME280;64252;51.094;13.714;2023-12-29T09:47:42;99875.03;;;19.28;38.17
75656;BME280;64252;51.094;13.714;2023-12-29T09:50:12;99877.47;;;19.77;37.34
75656;BME280;64252;51.094;13.714;2023-12-29T09:52:42;99871.81;;;19.73;36.88
75656;BME280;64252;51.094;13.714;2023-12-29T09:55:09;99863.78;;;20.25;36.85
75656;BME280;64252;51.094;13.714;2023-12-29T09:57:39;99866.53;;;19.38;37.37
75656;BME280;64252;51.094;13.714;2023-12-29T10:00:06;99869.53;;;19.47;37.61
75656;BME280;64252;51.094;13.714;2023-12-29T10:02:38;99877.19;;;20.80;35.39
75656;BME280;64252;51.094;13.714;2023-12-29T10:05:04;99862.78;;;20.19;36.54
75656;BME280;64252;51.094;13.714;2023-12-29T10:07:38;99861.44;;;19.67;37.32
75656;BME280;64252;51.094;13.714;2023-12-29T10:10:05;99867.06;;;20.36;36.35
75656;BME280;64252;51.094;13.714;2023-12-29T10:12:38;99877.53;;;20.51;35.62
75656;BME280;64252;51.094;13.714;2023-12-29T10:15:20;99871.19;;;20.35;36.19
75656;BME280;64252;51.094;13.714;2023-12-29T10:20:46;99874.66;;;19.86;37.29
75656;BME280;64252;51.094;13.714;2023-12-29T10:23:38;99874.06;;;19.91;37.04
75656;BME280;64252;51.094;13.714;2023-12-29T10:26:07;99882.47;;;19.51;37.46
75656;BME280;64252;51.094;13.714;2023-12-29T10:28:34;99885.78;;;19.50;37.84
75656;BME280;64252;51.094;13.714;2023-12-29T10:31:01;99903.72;;;19.97;37.13
75656;BME280;64252;51.094;13.714;2023-12-29T10:33:26;99898.50;;;19.83;37.14
75656;BME280;64252;51.094;13.714;2023-12-29T10:36:02;99895.00;;;19.07;38.09
75656;BME280;64252;51.094;13.714;2023-12-29T10:38:31;99892.53;;;19.90;37.00
75656;BME280;64252;51.094;13.714;2023-12-29T10:41:16;99894.06;;;19.35;37.85
75656;BME280;64252;51.094;13.714;2023-12-29T10:43:43;99890.16;;;20.32;36.74
75656;BME280;64252;51.094;13.714;2023-12-29T10:46:10;99895.88;;;19.16;38.06
75656;BME280;64252;51.094;13.714;2023-12-29T10:48:37;99896.41;;;19.96;36.74
75656;BME280;64252;51.094;13.714;2023-12-29T10:51:03;99890.47;;;20.12;36.61
75656;BME280;64252;51.094;13.714;2023-12-29T10:53:32;99901.03;;;20.99;35.98
75656;BME280;64252;51.094;13.714;2023-12-29T10:55:59;99892.78;;;19.83;37.07
75656;BME280;64252;51.094;13.714;2023-12-29T10:58:26;99888.56;;;20.93;35.30
75656;BME280;64252;51.094;13.714;2023-12-29T11:00:58;99886.63;;;20.59;35.90
75656;BME280;64252;51.094;13.714;2023-12-29T11:03:27;99879.28;;;20.89;35.61
75656;BME280;64252;51.094;13.714;2023-12-29T11:05:59;99879.59;;;19.39;37.40
75656;BME280;64252;51.094;13.714;2023-12-29T11:08:27;99874.81;;;20.48;36.08
75656;BME280;64252;51.094;13.714;2023-12-29T11:10:54;99868.81;;;20.33;36.50
75656;BME280;64252;51.094;13.714;2023-12-29T11:13:20;99877.19;;;20.80;35.64
75656;BME280;64252;51.094;13.714;2023-12-29T11:15:46;99870.28;;;20.38;36.42
75656;BME280;64252;51.094;13.714;2023-12-29T11:18:13;99863.91;;;21.05;35.36
75656;BME280;64252;51.094;13.714;2023-12-29T11:20:41;99867.53;;;20.34;35.74
75656;BME280;64252;51.094;13.714;2023-12-29T11:23:06;99867.47;;;19.82;37.22
75656;BME280;64252;51.094;13.714;2023-12-29T11:25:33;99868.28;;;19.82;37.25
75656;BME280;64252;51.094;13.714;2023-12-29T11:28:00;99876.59;;;19.55;37.51
75656;BME280;64252;51.094;13.714;2023-12-29T11:30:26;99869.28;;;19.54;37.56
75656;BME280;64252;51.094;13.714;2023-12-29T11:33:00;99859.38;;;19.20;38.29
75656;BME280;64252;51.094;13.714;2023-12-29T11:35:32;99865.41;;;19.48;38.03
75656;BME280;64252;51.094;13.714;2023-12-29T11:38:18;99850.97;;;19.73;37.26
75656;BME280;64252;51.094;13.714;2023-12-29T11:40:52;99847.25;;;20.29;36.54
75656;BME280;64252;51.094;13.714;2023-12-29T11:43:22;99856.16;;;20.83;35.58
75656;BME280;64252;51.094;13.714;2023-12-29T11:45:47;99856.84;;;20.13;36.84
75656;BME280;64252;51.094;13.714;2023-12-29T11:54:04;99831.47;;;20.24;36.80
75656;BME280;64252;51.094;13.714;2023-12-29T11:56:40;99825.56;;;20.49;36.12
75656;BME280;64252;51.094;13.714;2023-12-29T12:01:41;99818.44;;;21.03;35.13
75656;BME280;64252;51.094;13.714;2023-12-29T12:12:48;99804.41;;;19.60;37.46
75656;BME280;64252;51.094;13.714;2023-12-29T12:17:57;99795.22;;;19.65;37.65
75656;BME280;64252;51.094;13.714;2023-12-29T12:20:23;99793.69;;;19.95;37.39
75656;BME280;64252;51.094;13.714;2023-12-29T12:22:57;99779.97;;;20.21;36.34
75656;BME280;64252;51.094;13.714;2023-12-29T12:25:25;99787.03;;;20.29;36.17
75656;BME280;64252;51.094;13.714;2023-12-29T12:27:53;99800.09;;;20.30;36.41
75656;BME280;64252;51.094;13.714;2023-12-29T12:30:19;99790.66;;;19.55;37.88
75656;BME280;64252;51.094;13.714;2023-12-29T12:32:45;99777.22;;;19.64;37.43
75656;BME280;64252;51.094;13.714;2023-12-29T12:35:14;99782.31;;;20.13;36.76
75656;BME280;64252;51.094;13.714;2023-12-29T12:37:41;99783.06;;;19.26;38.36
75656;BME280;64252;51.094;13.714;2023-12-29T12:40:07;99780.47;;;19.19;38.67
75656;BME280;64252;51.094;13.714;2023-12-29T12:42:38;99778.91;;;19.53;38.11
75656;BME280;64252;51.094;13.714;2023-12-29T12:45:17;99786.84;;;20.01;37.44
75656;BME280;64252;51.094;13.714;2023-12-29T12:47:52;99793.94;;;19.32;38.34
75656;BME280;64252;51.094;13.714;2023-12-29T12:50:18;99803.72;;;19.56;38.23
75656;BME280;64252;51.094;13.714;2023-12-29T12:52:44;99812.00;;;20.19;37.08
75656;BME280;64252;51.094;13.714;2023-12-29T12:55:11;99806.19;;;19.88;37.68
75656;BME280;64252;51.094;13.714;2023-12-29T12:57:39;99800.00;;;19.90;37.64
75656;BME280;64252;51.094;13.714;2023-12-29T13:00:05;99800.91;;;20.30;37.04
75656;BME280;64252;51.094;13.714;2023-12-29T13:02:31;99788.97;;;21.57;35.15
75656;BME280;64252;51.094;13.714;2023-12-29T13:04:59;99787.38;;;20.62;36.23
75656;BME280;64252;51.094;13.714;2023-12-29T13:07:26;99792.47;;;21.16;35.54
75656;BME280;64252;51.094;13.714;2023-12-29T13:09:52;99795.16;;;19.99;37.15
75656;BME280;64252;51.094;13.714;2023-12-29T13:12:18;99791.22;;;21.26;35.50